sensor_id;sensor_type;location;lat;lon;timestamp;temperature;humidity
17659;DHT22;8948;51.534;8.262;2022-08-19T00:02:13;20.40;66.20
17659;DHT22;8948;51.534;8.262;2022-08-19T00:07:14;20.40;66.10
17659;DHT22;8948;51.534;8.262;2022-08-19T00:12:14;20.30;66.50
17659;DHT22;8948;51.534;8.262;2022-08-19T00:17:15;20.20;66.40
17659;DHT22;8948;51.534;8.262;2022-08-19T00:22:16;20.20;66.40
17659;DHT22;8948;51.534;8.262;2022-08-19T00:27:18;20.20;66.30
17659;DHT22;8948;51.534;8.262;2022-08-19T00:32:19;20.10;66.40
17659;DHT22;8948;51.534;8.262;2022-08-19T00:37:22;20.00;66.90
17659;DHT22;8948;51.534;8.262;2022-08-19T00:42:23;19.90;67.20
17659;DHT22;8948;51.534;8.262;2022-08-19T00:47:24;19.90;67.20
17659;DHT22;8948;51.534;8.262;2022-08-19T00:52:29;19.90;67.20
17659;DHT22;8948;51.534;8.262;2022-08-19T00:57:35;19.80;67.30
17659;DHT22;8948;51.534;8.262;2022-08-19T01:02:37;19.80;66.90
17659;DHT22;8948;51.534;8.262;2022-08-19T01:07:39;19.70;67.20
17659;DHT22;8948;51.534;8.262;2022-08-19T01:12:41;19.70;67.60
17659;DHT22;8948;51.534;8.262;2022-08-19T01:17:42;19.60;67.80
17659;DHT22;8948;51.534;8.262;2022-08-19T01:27:48;19.50;67.90
17659;DHT22;8948;51.534;8.262;2022-08-19T01:32:50;19.40;68.00
17659;DHT22;8948;51.534;8.262;2022-08-19T01:38:00;19.40;67.70
17659;DHT22;8948;51.534;8.262;2022-08-19T01:43:02;19.30;67.80
17659;DHT22;8948;51.534;8.262;2022-08-19T01:48:03;19.30;67.70
17659;DHT22;8948;51.534;8.262;2022-08-19T01:53:08;19.30;68.00
17659;DHT22;8948;51.534;8.262;2022-08-19T01:58:13;19.30;68.70
17659;DHT22;8948;51.534;8.262;2022-08-19T02:03:15;19.30;68.00
17659;DHT22;8948;51.534;8.262;2022-08-19T02:08:16;19.20;68.00
17659;DHT22;8948;51.534;8.262;2022-08-19T02:13:16;19.20;68.10
17659;DHT22;8948;51.534;8.262;2022-08-19T02:18:17;19.10;68.50
17659;DHT22;8948;51.534;8.262;2022-08-19T02:23:18;19.10;68.50
17659;DHT22;8948;51.534;8.262;2022-08-19T02:28:18;19.10;68.50
17659;DHT22;8948;51.534;8.262;2022-08-19T02:33:19;19.10;68.50
17659;DHT22;8948;51.534;8.262;2022-08-19T02:38:20;19.00;69.40
17659;DHT22;8948;51.534;8.262;2022-08-19T02:43:27;19.00;68.90
17659;DHT22;8948;51.534;8.262;2022-08-19T02:48:28;19.00;68.80
17659;DHT22;8948;51.534;8.262;2022-08-19T02:53:29;18.90;68.90
17659;DHT22;8948;51.534;8.262;2022-08-19T02:58:30;18.80;69.10
17659;DHT22;8948;51.534;8.262;2022-08-19T03:03:30;18.80;69.40
17659;DHT22;8948;51.534;8.262;2022-08-19T03:08:32;18.80;69.60
17659;DHT22;8948;51.534;8.262;2022-08-19T03:13:32;18.80;69.30
17659;DHT22;8948;51.534;8.262;2022-08-19T03:18:33;18.80;69.40
17659;DHT22;8948;51.534;8.262;2022-08-19T03:23:35;18.70;69.40
17659;DHT22;8948;51.534;8.262;2022-08-19T03:28:35;18.90;71.30
17659;DHT22;8948;51.534;8.262;2022-08-19T03:33:36;19.20;69.50
17659;DHT22;8948;51.534;8.262;2022-08-19T03:38:42;19.10;69.20
17659;DHT22;8948;51.534;8.262;2022-08-19T03:43:44;19.20;69.70
17659;DHT22;8948;51.534;8.262;2022-08-19T03:48:47;19.40;69.30
17659;DHT22;8948;51.534;8.262;2022-08-19T03:53:48;19.50;67.60
17659;DHT22;8948;51.534;8.262;2022-08-19T03:58:49;19.40;68.70
17659;DHT22;8948;51.534;8.262;2022-08-19T04:03:49;19.40;68.00
17659;DHT22;8948;51.534;8.262;2022-08-19T04:08:52;19.30;69.00
17659;DHT22;8948;51.534;8.262;2022-08-19T04:13:55;19.40;68.80
17659;DHT22;8948;51.534;8.262;2022-08-19T04:18:58;19.30;68.50
17659;DHT22;8948;51.534;8.262;2022-08-19T04:24:00;19.30;68.50
17659;DHT22;8948;51.534;8.262;2022-08-19T04:29:07;19.20;68.00
17659;DHT22;8948;51.534;8.262;2022-08-19T04:34:09;18.90;68.30
17659;DHT22;8948;51.534;8.262;2022-08-19T04:39:15;18.70;69.00
17659;DHT22;8948;51.534;8.262;2022-08-19T04:44:16;18.60;69.60
17659;DHT22;8948;51.534;8.262;2022-08-19T04:49:21;18.50;69.80
17659;DHT22;8948;51.534;8.262;2022-08-19T04:54:24;18.50;69.80
17659;DHT22;8948;51.534;8.262;2022-08-19T04:59:25;18.40;70.20
17659;DHT22;8948;51.534;8.262;2022-08-19T05:04:25;18.40;70.20
17659;DHT22;8948;51.534;8.262;2022-08-19T05:09:27;18.50;70.00
17659;DHT22;8948;51.534;8.262;2022-08-19T05:14:28;18.60;69.90
17659;DHT22;8948;51.534;8.262;2022-08-19T05:19:29;18.60;70.50
17659;DHT22;8948;51.534;8.262;2022-08-19T05:24:48;18.70;70.70
17659;DHT22;8948;51.534;8.262;2022-08-19T05:29:49;18.90;71.10
17659;DHT22;8948;51.534;8.262;2022-08-19T05:34:49;19.10;70.60
17659;DHT22;8948;51.534;8.262;2022-08-19T05:39:50;19.30;70.40
17659;DHT22;8948;51.534;8.262;2022-08-19T05:44:51;19.40;71.20
17659;DHT22;8948;51.534;8.262;2022-08-19T05:49:52;19.70;71.10
17659;DHT22;8948;51.534;8.262;2022-08-19T05:54:53;19.70;71.60
17659;DHT22;8948;51.534;8.262;2022-08-19T05:59:55;19.90;71.70
17659;DHT22;8948;51.534;8.262;2022-08-19T06:04:57;20.00;71.60
17659;DHT22;8948;51.534;8.262;2022-08-19T06:09:58;20.10;71.50
17659;DHT22;8948;51.534;8.262;2022-08-19T06:15:07;20.10;71.30
17659;DHT22;8948;51.534;8.262;2022-08-19T06:20:11;20.50;69.80
17659;DHT22;8948;51.534;8.262;2022-08-19T06:25:14;20.90;68.90
17659;DHT22;8948;51.534;8.262;2022-08-19T06:30:15;21.20;68.30
17659;DHT22;8948;51.534;8.262;2022-08-19T06:35:15;21.30;67.80
17659;DHT22;8948;51.534;8.262;2022-08-19T06:40:16;21.30;67.50
17659;DHT22;8948;51.534;8.262;2022-08-19T06:45:16;21.50;67.70
17659;DHT22;8948;51.534;8.262;2022-08-19T06:50:17;21.50;68.10
17659;DHT22;8948;51.534;8.262;2022-08-19T06:55:19;21.60;67.80
17659;DHT22;8948;51.534;8.262;2022-08-19T07:00:19;21.70;67.70
17659;DHT22;8948;51.534;8.262;2022-08-19T07:05:20;21.80;67.50
17659;DHT22;8948;51.534;8.262;2022-08-19T07:10:21;21.90;67.40
17659;DHT22;8948;51.534;8.262;2022-08-19T07:15:22;22.00;67.00
17659;DHT22;8948;51.534;8.262;2022-08-19T07:20:23;22.00;66.30
17659;DHT22;8948;51.534;8.262;2022-08-19T07:25:24;22.10;66.40
17659;DHT22;8948;51.534;8.262;2022-08-19T07:30:24;22.20;66.60
17659;DHT22;8948;51.534;8.262;2022-08-19T07:35:25;22.40;66.00
17659;DHT22;8948;51.534;8.262;2022-08-19T07:40:26;22.80;64.80
17659;DHT22;8948;51.534;8.262;2022-08-19T07:45:26;22.90;64.40
17659;DHT22;8948;51.534;8.262;2022-08-19T07:50:28;22.90;63.00
17659;DHT22;8948;51.534;8.262;2022-08-19T07:55:29;22.90;63.40
17659;DHT22;8948;51.534;8.262;2022-08-19T08:00:30;23.10;62.50
17659;DHT22;8948;51.534;8.262;2022-08-19T08:05:31;23.10;62.50
17659;DHT22;8948;51.534;8.262;2022-08-19T08:10:50;23.20;61.90
17659;DHT22;8948;51.534;8.262;2022-08-19T08:15:51;23.20;61.80
17659;DHT22;8948;51.534;8.262;2022-08-19T08:20:51;23.60;60.60
17659;DHT22;8948;51.534;8.262;2022-08-19T08:25:56;23.60;60.80
17659;DHT22;8948;51.534;8.262;2022-08-19T08:30:58;23.80;60.00
17659;DHT22;8948;51.534;8.262;2022-08-19T08:35:58;24.20;59.60
17659;DHT22;8948;51.534;8.262;2022-08-19T08:41:09;24.40;58.30
17659;DHT22;8948;51.534;8.262;2022-08-19T08:51:27;24.60;57.00
17659;DHT22;8948;51.534;8.262;2022-08-19T08:56:29;24.50;57.00
17659;DHT22;8948;51.534;8.262;2022-08-19T09:01:30;24.50;57.30
17659;DHT22;8948;51.534;8.262;2022-08-19T09:06:38;24.60;57.90
17659;DHT22;8948;51.534;8.262;2022-08-19T09:12:18;24.40;57.30
17659;DHT22;8948;51.534;8.262;2022-08-19T09:17:25;25.10;54.40
17659;DHT22;8948;51.534;8.262;2022-08-19T09:22:31;25.80;53.70
17659;DHT22;8948;51.534;8.262;2022-08-19T09:27:32;26.00;53.10
17659;DHT22;8948;51.534;8.262;2022-08-19T09:32:33;25.40;54.60
17659;DHT22;8948;51.534;8.262;2022-08-19T09:37:34;26.10;53.60
17659;DHT22;8948;51.534;8.262;2022-08-19T09:42:34;27.00;51.80
17659;DHT22;8948;51.534;8.262;2022-08-19T09:47:36;26.20;52.70
17659;DHT22;8948;51.534;8.262;2022-08-19T09:52:38;26.30;52.60
17659;DHT22;8948;51.534;8.262;2022-08-19T09:57:39;27.00;51.20
17659;DHT22;8948;51.534;8.262;2022-08-19T10:02:39;27.80;49.50
17659;DHT22;8948;51.534;8.262;2022-08-19T10:07:40;27.70;49.30
17659;DHT22;8948;51.534;8.262;2022-08-19T10:12:40;27.10;49.80
17659;DHT22;8948;51.534;8.262;2022-08-19T10:17:41;27.80;49.50
17659;DHT22;8948;51.534;8.262;2022-08-19T10:22:42;28.40;45.90
17659;DHT22;8948;51.534;8.262;2022-08-19T10:27:43;28.80;45.20
17659;DHT22;8948;51.534;8.262;2022-08-19T10:32:44;29.00;45.30
17659;DHT22;8948;51.534;8.262;2022-08-19T10:37:46;28.20;46.20
17659;DHT22;8948;51.534;8.262;2022-08-19T10:42:46;28.60;44.60
17659;DHT22;8948;51.534;8.262;2022-08-19T10:47:47;29.50;43.90
17659;DHT22;8948;51.534;8.262;2022-08-19T10:52:49;29.70;42.50
17659;DHT22;8948;51.534;8.262;2022-08-19T10:57:50;29.10;42.70
17659;DHT22;8948;51.534;8.262;2022-08-19T11:02:52;29.10;43.60
17659;DHT22;8948;51.534;8.262;2022-08-19T11:07:53;29.90;42.10
17659;DHT22;8948;51.534;8.262;2022-08-19T11:12:54;30.20;41.10
17659;DHT22;8948;51.534;8.262;2022-08-19T11:17:56;30.60;41.20
17659;DHT22;8948;51.534;8.262;2022-08-19T11:22:57;30.20;41.80
17659;DHT22;8948;51.534;8.262;2022-08-19T11:27:57;29.00;43.70
17659;DHT22;8948;51.534;8.262;2022-08-19T11:32:58;28.20;44.70
17659;DHT22;8948;51.534;8.262;2022-08-19T11:38:01;27.50;44.50
17659;DHT22;8948;51.534;8.262;2022-08-19T11:43:03;28.00;44.70
17659;DHT22;8948;51.534;8.262;2022-08-19T11:48:04;29.50;41.80
17659;DHT22;8948;51.534;8.262;2022-08-19T11:53:05;30.20;40.40
17659;DHT22;8948;51.534;8.262;2022-08-19T11:58:06;30.90;39.10
17659;DHT22;8948;51.534;8.262;2022-08-19T12:03:08;30.90;38.50
17659;DHT22;8948;51.534;8.262;2022-08-19T12:08:09;30.60;40.30
17659;DHT22;8948;51.534;8.262;2022-08-19T12:13:10;30.70;38.20
17659;DHT22;8948;51.534;8.262;2022-08-19T12:18:10;31.40;38.10
17659;DHT22;8948;51.534;8.262;2022-08-19T12:23:11;32.00;36.50
17659;DHT22;8948;51.534;8.262;2022-08-19T12:28:12;32.30;36.60
17659;DHT22;8948;51.534;8.262;2022-08-19T12:33:13;32.10;35.30
17659;DHT22;8948;51.534;8.262;2022-08-19T12:38:14;32.30;36.10
17659;DHT22;8948;51.534;8.262;2022-08-19T12:43:15;32.40;36.00
17659;DHT22;8948;51.534;8.262;2022-08-19T12:48:19;32.90;35.70
17659;DHT22;8948;51.534;8.262;2022-08-19T12:53:20;32.80;35.70
17659;DHT22;8948;51.534;8.262;2022-08-19T12:58:21;32.80;35.80
17659;DHT22;8948;51.534;8.262;2022-08-19T13:03:22;32.30;36.60
17659;DHT22;8948;51.534;8.262;2022-08-19T13:08:27;32.60;36.40
17659;DHT22;8948;51.534;8.262;2022-08-19T13:13:28;32.60;36.10
17659;DHT22;8948;51.534;8.262;2022-08-19T13:18:29;32.40;35.90
17659;DHT22;8948;51.534;8.262;2022-08-19T13:23:30;32.40;36.30
17659;DHT22;8948;51.534;8.262;2022-08-19T13:28:31;32.50;36.00
17659;DHT22;8948;51.534;8.262;2022-08-19T13:33:52;32.70;36.40
17659;DHT22;8948;51.534;8.262;2022-08-19T13:38:52;33.50;35.90
17659;DHT22;8948;51.534;8.262;2022-08-19T13:43:53;32.80;35.10
17659;DHT22;8948;51.534;8.262;2022-08-19T13:48:54;31.80;36.30
17659;DHT22;8948;51.534;8.262;2022-08-19T13:53:55;30.80;36.90
17659;DHT22;8948;51.534;8.262;2022-08-19T13:58:56;30.30;38.20
17659;DHT22;8948;51.534;8.262;2022-08-19T14:03:57;30.70;38.20
17659;DHT22;8948;51.534;8.262;2022-08-19T14:08:58;30.10;39.00
17659;DHT22;8948;51.534;8.262;2022-08-19T14:13:58;29.80;38.90
17659;DHT22;8948;51.534;8.262;2022-08-19T14:18:59;29.50;38.70
17659;DHT22;8948;51.534;8.262;2022-08-19T14:23:59;29.60;39.30
17659;DHT22;8948;51.534;8.262;2022-08-19T14:29:01;31.00;38.30
17659;DHT22;8948;51.534;8.262;2022-08-19T14:34:02;31.90;36.60
17659;DHT22;8948;51.534;8.262;2022-08-19T14:39:03;32.20;36.70
17659;DHT22;8948;51.534;8.262;2022-08-19T14:44:04;31.80;37.50
17659;DHT22;8948;51.534;8.262;2022-08-19T14:49:05;32.10;36.50
17659;DHT22;8948;51.534;8.262;2022-08-19T14:54:05;32.10;36.40
17659;DHT22;8948;51.534;8.262;2022-08-19T14:59:06;31.70;37.00
17659;DHT22;8948;51.534;8.262;2022-08-19T15:04:07;31.80;37.30
17659;DHT22;8948;51.534;8.262;2022-08-19T15:09:08;32.00;37.10
17659;DHT22;8948;51.534;8.262;2022-08-19T15:14:09;32.00;36.60
17659;DHT22;8948;51.534;8.262;2022-08-19T15:19:16;31.90;36.90
17659;DHT22;8948;51.534;8.262;2022-08-19T15:24:17;31.90;36.20
17659;DHT22;8948;51.534;8.262;2022-08-19T15:29:19;31.80;36.20
17659;DHT22;8948;51.534;8.262;2022-08-19T15:34:19;32.20;35.60
17659;DHT22;8948;51.534;8.262;2022-08-19T15:39:20;32.80;35.10
17659;DHT22;8948;51.534;8.262;2022-08-19T15:44:21;32.60;34.30
17659;DHT22;8948;51.534;8.262;2022-08-19T15:49:22;32.60;34.60
17659;DHT22;8948;51.534;8.262;2022-08-19T15:54:23;32.60;35.00
17659;DHT22;8948;51.534;8.262;2022-08-19T15:59:23;32.90;34.50
17659;DHT22;8948;51.534;8.262;2022-08-19T16:04:43;32.70;34.40
17659;DHT22;8948;51.534;8.262;2022-08-19T16:10:04;32.70;34.00
17659;DHT22;8948;51.534;8.262;2022-08-19T16:15:05;32.20;34.20
17659;DHT22;8948;51.534;8.262;2022-08-19T16:20:08;31.80;34.90
17659;DHT22;8948;51.534;8.262;2022-08-19T16:25:10;31.60;35.30
17659;DHT22;8948;51.534;8.262;2022-08-19T16:30:11;31.60;35.70
17659;DHT22;8948;51.534;8.262;2022-08-19T16:35:11;31.30;36.10
17659;DHT22;8948;51.534;8.262;2022-08-19T16:40:12;30.60;36.60
17659;DHT22;8948;51.534;8.262;2022-08-19T16:45:13;30.20;36.80
17659;DHT22;8948;51.534;8.262;2022-08-19T16:50:13;29.60;37.80
17659;DHT22;8948;51.534;8.262;2022-08-19T16:55:14;29.50;38.10
17659;DHT22;8948;51.534;8.262;2022-08-19T17:00:16;29.20;38.60
17659;DHT22;8948;51.534;8.262;2022-08-19T17:05:16;28.80;39.10
17659;DHT22;8948;51.534;8.262;2022-08-19T17:10:18;28.80;39.50
17659;DHT22;8948;51.534;8.262;2022-08-19T17:15:18;28.70;39.40
17659;DHT22;8948;51.534;8.262;2022-08-19T17:20:19;28.60;39.50
17659;DHT22;8948;51.534;8.262;2022-08-19T17:25:20;28.50;39.60
17659;DHT22;8948;51.534;8.262;2022-08-19T17:30:21;28.60;39.70
17659;DHT22;8948;51.534;8.262;2022-08-19T17:35:22;28.40;39.80
17659;DHT22;8948;51.534;8.262;2022-08-19T17:40:23;28.40;39.90
17659;DHT22;8948;51.534;8.262;2022-08-19T17:45:25;28.40;40.00
17659;DHT22;8948;51.534;8.262;2022-08-19T17:50:27;28.30;40.10
17659;DHT22;8948;51.534;8.262;2022-08-19T17:55:28;28.20;40.40
17659;DHT22;8948;51.534;8.262;2022-08-19T18:00:30;28.20;40.70
17659;DHT22;8948;51.534;8.262;2022-08-19T18:05:34;28.10;40.60
17659;DHT22;8948;51.534;8.262;2022-08-19T18:10:36;28.00;40.70
17659;DHT22;8948;51.534;8.262;2022-08-19T18:15:37;28.00;40.80
17659;DHT22;8948;51.534;8.262;2022-08-19T18:20:37;27.90;41.00
17659;DHT22;8948;51.534;8.262;2022-08-19T18:25:38;27.80;41.00
17659;DHT22;8948;51.534;8.262;2022-08-19T18:30:39;27.70;41.20
17659;DHT22;8948;51.534;8.262;2022-08-19T18:35:42;27.50;41.20
17659;DHT22;8948;51.534;8.262;2022-08-19T18:40:47;27.30;41.60
17659;DHT22;8948;51.534;8.262;2022-08-19T18:46:06;27.40;41.60
17659;DHT22;8948;51.534;8.262;2022-08-19T18:51:26;27.20;41.90
17659;DHT22;8948;51.534;8.262;2022-08-19T18:56:30;27.20;42.00
17659;DHT22;8948;51.534;8.262;2022-08-19T19:01:36;27.00;42.50
17659;DHT22;8948;51.534;8.262;2022-08-19T19:06:39;27.00;42.40
17659;DHT22;8948;51.534;8.262;2022-08-19T19:11:43;26.80;42.70
17659;DHT22;8948;51.534;8.262;2022-08-19T19:16:44;26.80;42.90
17659;DHT22;8948;51.534;8.262;2022-08-19T19:21:47;26.70;43.20
17659;DHT22;8948;51.534;8.262;2022-08-19T19:26:50;26.60;43.40
17659;DHT22;8948;51.534;8.262;2022-08-19T19:31:51;26.60;43.60
17659;DHT22;8948;51.534;8.262;2022-08-19T19:36:52;26.50;43.70
17659;DHT22;8948;51.534;8.262;2022-08-19T19:41:53;26.30;44.00
17659;DHT22;8948;51.534;8.262;2022-08-19T19:46:53;26.20;44.20
17659;DHT22;8948;51.534;8.262;2022-08-19T19:51:56;26.10;44.20
17659;DHT22;8948;51.534;8.262;2022-08-19T19:56:56;25.90;44.60
17659;DHT22;8948;51.534;8.262;2022-08-19T20:01:57;25.80;45.00
17659;DHT22;8948;51.534;8.262;2022-08-19T20:06:57;25.80;44.80
17659;DHT22;8948;51.534;8.262;2022-08-19T20:11:58;25.80;44.90
17659;DHT22;8948;51.534;8.262;2022-08-19T20:16:59;25.60;45.40
17659;DHT22;8948;51.534;8.262;2022-08-19T20:22:00;25.60;45.20
17659;DHT22;8948;51.534;8.262;2022-08-19T20:27:02;25.50;45.10
17659;DHT22;8948;51.534;8.262;2022-08-19T20:32:03;25.50;45.10
17659;DHT22;8948;51.534;8.262;2022-08-19T20:37:04;25.50;45.10
17659;DHT22;8948;51.534;8.262;2022-08-19T20:42:04;25.40;45.20
17659;DHT22;8948;51.534;8.262;2022-08-19T20:47:05;25.20;45.50
17659;DHT22;8948;51.534;8.262;2022-08-19T20:52:06;25.00;46.00
17659;DHT22;8948;51.534;8.262;2022-08-19T20:57:06;24.80;46.70
17659;DHT22;8948;51.534;8.262;2022-08-19T21:02:08;24.80;47.20
17659;DHT22;8948;51.534;8.262;2022-08-19T21:07:08;24.60;48.60
17659;DHT22;8948;51.534;8.262;2022-08-19T21:12:11;24.50;49.20
17659;DHT22;8948;51.534;8.262;2022-08-19T21:17:12;24.60;49.40
17659;DHT22;8948;51.534;8.262;2022-08-19T21:22:13;24.60;49.70
17659;DHT22;8948;51.534;8.262;2022-08-19T21:27:13;24.60;50.00
17659;DHT22;8948;51.534;8.262;2022-08-19T21:32:14;24.70;49.90
17659;DHT22;8948;51.534;8.262;2022-08-19T21:37:15;24.80;49.90
17659;DHT22;8948;51.534;8.262;2022-08-19T21:42:16;24.70;50.10
17659;DHT22;8948;51.534;8.262;2022-08-19T21:47:17;24.50;51.00
17659;DHT22;8948;51.534;8.262;2022-08-19T21:52:25;24.50;51.00
17659;DHT22;8948;51.534;8.262;2022-08-19T21:57:26;24.60;51.40
17659;DHT22;8948;51.534;8.262;2022-08-19T22:02:26;24.40;51.30
17659;DHT22;8948;51.534;8.262;2022-08-19T22:07:27;24.50;51.60
17659;DHT22;8948;51.534;8.262;2022-08-19T22:12:30;24.60;51.70
17659;DHT22;8948;51.534;8.262;2022-08-19T22:17:31;24.60;52.10
17659;DHT22;8948;51.534;8.262;2022-08-19T22:22:32;24.60;52.30
17659;DHT22;8948;51.534;8.262;2022-08-19T22:27:34;24.50;52.60
17659;DHT22;8948;51.534;8.262;2022-08-19T22:32:35;24.60;52.90
17659;DHT22;8948;51.534;8.262;2022-08-19T22:37:36;24.60;53.10
17659;DHT22;8948;51.534;8.262;2022-08-19T22:42:38;24.50;53.30
17659;DHT22;8948;51.534;8.262;2022-08-19T22:47:39;24.50;53.70
17659;DHT22;8948;51.534;8.262;2022-08-19T22:52:39;24.30;54.00
17659;DHT22;8948;51.534;8.262;2022-08-19T22:57:42;24.40;54.10
17659;DHT22;8948;51.534;8.262;2022-08-19T23:02:44;24.30;54.60
17659;DHT22;8948;51.534;8.262;2022-08-19T23:07:45;24.10;55.50
17659;DHT22;8948;51.534;8.262;2022-08-19T23:12:47;24.20;55.20
17659;DHT22;8948;51.534;8.262;2022-08-19T23:17:47;24.20;55.50
17659;DHT22;8948;51.534;8.262;2022-08-19T23:22:48;24.10;56.10
17659;DHT22;8948;51.534;8.262;2022-08-19T23:27:50;23.90;56.90
17659;DHT22;8948;51.534;8.262;2022-08-19T23:38:14;23.70;58.00
17659;DHT22;8948;51.534;8.262;2022-08-19T23:43:15;23.60;57.70
17659;DHT22;8948;51.534;8.262;2022-08-19T23:48:16;23.50;58.20
17659;DHT22;8948;51.534;8.262;2022-08-19T23:53:17;23.50;58.10
17659;DHT22;8948;51.534;8.262;2022-08-19T23:58:18;23.30;58.50
